createdAt,value
2022-08-21T00:00:51.131Z,16.56
2022-08-21T00:05:54.387Z,16.68
2022-08-21T00:10:58.734Z,16.76
2022-08-21T00:16:02.039Z,16.71
2022-08-21T00:21:05.215Z,16.81
2022-08-21T00:26:10.092Z,16.87
2022-08-21T00:31:12.992Z,16.86
2022-08-21T00:36:16.276Z,16.84
2022-08-21T00:41:37.491Z,16.85
2022-08-21T00:46:42.577Z,16.84
2022-08-21T00:51:50.404Z,16.77
2022-08-21T00:56:59.511Z,16.73
2022-08-21T01:02:02.651Z,16.62
2022-08-21T01:07:05.602Z,16.52
2022-08-21T01:12:10.936Z,16.47
2022-08-21T01:17:16.733Z,16.44
2022-08-21T01:22:21.135Z,15.73
2022-08-21T01:27:24.104Z,15.86
2022-08-21T01:32:27.784Z,16.06
2022-08-21T01:37:32.033Z,16.04
2022-08-21T01:42:35.448Z,16.03
2022-08-21T01:47:38.785Z,15.95
2022-08-21T01:52:43.775Z,15.94
2022-08-21T01:57:47.400Z,16.05
2022-08-21T02:02:51.005Z,16.07
2022-08-21T02:07:56.644Z,16.07
2022-08-21T02:13:00.847Z,16.03
2022-08-21T02:18:04.938Z,16.02
2022-08-21T02:23:11.040Z,16.02
2022-08-21T02:28:15.716Z,16.09
2022-08-21T02:33:19.301Z,16.03
2022-08-21T02:38:27.122Z,15.75
2022-08-21T02:43:30.432Z,15.77
2022-08-21T02:48:34.850Z,15.89
2022-08-21T02:53:39.460Z,15.82
2022-08-21T02:58:53.027Z,15.81
2022-08-21T03:03:57.089Z,15.67
2022-08-21T03:09:01.732Z,15.52
2022-08-21T03:14:06.148Z,15.45
2022-08-21T03:19:09.023Z,15.49
2022-08-21T03:24:13.174Z,15.50
2022-08-21T03:29:16.473Z,15.50
2022-08-21T03:34:19.317Z,14.97
2022-08-21T03:39:23.544Z,15.01
2022-08-21T03:44:29.032Z,15.16
2022-08-21T03:49:31.986Z,15.23
2022-08-21T03:54:36.225Z,15.32
2022-08-21T03:59:40.016Z,15.38
2022-08-21T04:04:42.849Z,15.40
2022-08-21T04:09:47.553Z,15.40
2022-08-21T04:14:50.996Z,15.41
2022-08-21T04:19:54.116Z,15.33
2022-08-21T04:24:58.460Z,15.37
2022-08-21T04:30:01.899Z,15.46
2022-08-21T04:35:09.340Z,15.47
2022-08-21T04:40:15.395Z,15.46
2022-08-21T04:45:22.097Z,15.44
2022-08-21T04:50:28.613Z,15.47
2022-08-21T04:55:43.777Z,15.46
2022-08-21T05:00:47.614Z,15.39
2022-08-21T05:05:50.879Z,15.38
2022-08-21T05:11:00.154Z,15.35
2022-08-21T05:16:03.572Z,15.40
2022-08-21T05:21:06.760Z,15.36
2022-08-21T05:26:18.057Z,15.27
2022-08-21T05:31:21.241Z,15.38
2022-08-21T05:36:24.854Z,15.40
2022-08-21T05:41:29.494Z,15.54
2022-08-21T05:46:32.352Z,15.76
2022-08-21T05:51:35.214Z,16.05
2022-08-21T05:56:39.408Z,16.20
2022-08-21T06:01:42.832Z,16.25
2022-08-21T06:06:45.660Z,16.37
2022-08-21T06:11:49.945Z,16.60
2022-08-21T06:16:52.936Z,16.80
2022-08-21T06:21:55.748Z,16.99
2022-08-21T06:26:59.936Z,17.12
2022-08-21T06:32:04.272Z,17.28
2022-08-21T06:37:07.647Z,17.50
2022-08-21T06:42:17.177Z,17.69
2022-08-21T06:47:20.717Z,17.82
2022-08-21T06:52:23.684Z,18.01
2022-08-21T06:57:28.149Z,18.23
2022-08-21T07:02:30.976Z,18.36
2022-08-21T07:07:33.770Z,18.53
2022-08-21T07:12:38.077Z,18.74
2022-08-21T07:17:40.936Z,18.96
2022-08-21T07:22:44.349Z,19.38
2022-08-21T07:27:48.506Z,19.55
2022-08-21T07:32:51.516Z,19.99
2022-08-21T07:37:54.329Z,20.37
2022-08-21T07:42:58.634Z,20.92
2022-08-21T07:48:01.680Z,21.36
2022-08-21T07:53:05.106Z,21.00
2022-08-21T07:58:09.560Z,21.45
2022-08-21T08:03:12.654Z,21.39
2022-08-21T08:08:15.726Z,21.57
2022-08-21T08:13:20.055Z,22.14
2022-08-21T08:18:22.886Z,21.05
2022-08-21T08:23:26.305Z,21.60
2022-08-21T08:28:32.603Z,21.81
2022-08-21T08:33:35.489Z,22.01
2022-08-21T08:38:38.417Z,22.52
2022-08-21T08:43:52.495Z,22.54
2022-08-21T08:48:57.596Z,23.32
2022-08-21T08:54:03.743Z,23.13
2022-08-21T08:59:15.757Z,23.23
2022-08-21T09:04:24.804Z,22.55
2022-08-21T09:09:40.180Z,22.64
2022-08-21T09:15:01.031Z,23.41
2022-08-21T09:20:15.606Z,23.50
2022-08-21T09:25:27.933Z,22.87
2022-08-21T09:30:34.416Z,23.17
2022-08-21T09:35:38.249Z,23.54
2022-08-21T09:40:44.136Z,23.09
2022-08-21T09:45:50.515Z,23.54
2022-08-21T09:50:54.714Z,23.98
2022-08-21T09:56:17.904Z,23.00
2022-08-21T10:01:27.319Z,23.16
2022-08-21T10:06:31.034Z,23.15
2022-08-21T10:11:35.200Z,23.23
2022-08-21T10:16:49.203Z,22.97
2022-08-21T10:22:02.450Z,23.73
2022-08-21T10:27:17.758Z,24.43
2022-08-21T10:32:43.309Z,24.76
2022-08-21T10:38:01.184Z,24.05
2022-08-21T10:43:18.726Z,24.05
2022-08-21T10:48:29.955Z,25.22
2022-08-21T10:53:57.000Z,24.00
2022-08-21T10:59:10.096Z,23.70
2022-08-21T11:04:21.605Z,24.42
2022-08-21T11:09:27.905Z,24.06
2022-08-21T11:14:38.476Z,23.91
2022-08-21T11:19:50.114Z,24.58
2022-08-21T11:24:59.355Z,25.57
2022-08-21T11:30:02.964Z,25.78
2022-08-21T11:35:15.480Z,27.09
2022-08-21T11:40:33.325Z,26.65
2022-08-21T11:45:46.744Z,26.08
2022-08-21T11:50:53.037Z,27.67
2022-08-21T11:56:02.317Z,25.89
2022-08-21T12:01:09.166Z,25.18
2022-08-21T12:06:24.081Z,25.80
2022-08-21T12:11:30.909Z,25.86
2022-08-21T12:16:36.154Z,26.04
2022-08-21T12:21:52.996Z,27.32
2022-08-21T12:26:59.165Z,26.61
2022-08-21T12:32:04.278Z,27.68
2022-08-21T12:37:17.377Z,28.42
2022-08-21T12:42:23.604Z,28.44
2022-08-21T12:47:36.813Z,27.87
2022-08-21T12:52:48.065Z,29.80
2022-08-21T12:57:50.937Z,28.82
2022-08-21T13:02:56.368Z,28.48
2022-08-21T13:08:04.978Z,27.59
2022-08-21T13:13:12.927Z,27.57
2022-08-21T13:18:24.599Z,28.52
2022-08-21T13:23:30.659Z,28.46
2022-08-21T13:28:38.613Z,28.30
2022-08-21T13:33:43.384Z,27.88
2022-08-21T13:38:48.039Z,29.19
2022-08-21T13:43:52.981Z,29.53
2022-08-21T13:48:57.217Z,29.12
2022-08-21T13:54:02.784Z,29.28
2022-08-21T13:59:05.672Z,27.77
2022-08-21T14:04:18.619Z,27.71
2022-08-21T14:09:30.458Z,28.15
2022-08-21T14:14:33.984Z,28.14
2022-08-21T14:19:42.666Z,28.34
2022-08-21T14:24:47.120Z,27.42
2022-08-21T14:30:01.667Z,26.68
2022-08-21T14:35:04.967Z,27.31
2022-08-21T14:40:11.611Z,26.34
2022-08-21T14:45:21.187Z,25.35
2022-08-21T14:50:28.170Z,25.35
2022-08-21T14:55:56.070Z,25.87
2022-08-21T15:01:00.203Z,26.58
2022-08-21T15:06:04.083Z,27.01
2022-08-21T15:11:12.423Z,28.04
2022-08-21T15:16:16.494Z,26.68
2022-08-21T15:21:19.532Z,26.04
2022-08-21T15:26:25.452Z,26.36
2022-08-21T15:31:28.760Z,26.44
2022-08-21T15:36:31.649Z,27.34
2022-08-21T15:41:35.920Z,26.69
2022-08-21T15:46:39.633Z,26.69
2022-08-21T15:51:43.684Z,25.73
2022-08-21T15:56:52.531Z,26.01
2022-08-21T16:01:55.400Z,26.18
2022-08-21T16:07:04.363Z,26.72
2022-08-21T16:12:15.880Z,28.93
2022-08-21T16:17:18.801Z,27.80
2022-08-21T16:22:21.585Z,25.89
2022-08-21T16:27:27.269Z,26.00
2022-08-21T16:32:30.746Z,26.76
2022-08-21T16:37:33.581Z,26.18
2022-08-21T16:42:38.971Z,27.06
2022-08-21T16:47:43.034Z,25.58
2022-08-21T16:52:45.889Z,25.06
2022-08-21T16:57:50.609Z,25.49
2022-08-21T17:02:56.332Z,25.69
2022-08-21T17:07:59.204Z,25.24
2022-08-21T17:13:09.423Z,25.12
2022-08-21T17:18:15.686Z,25.05
2022-08-21T17:23:20.116Z,25.03
2022-08-21T17:28:27.507Z,24.93
2022-08-21T17:33:37.652Z,24.75
2022-08-21T17:38:40.675Z,24.51
2022-08-21T17:43:45.211Z,24.29
2022-08-21T17:48:48.009Z,24.07
2022-08-21T17:53:50.936Z,23.87
2022-08-21T17:58:55.237Z,23.66
2022-08-21T18:03:58.045Z,23.47
2022-08-21T18:09:00.851Z,23.09
2022-08-21T18:14:07.759Z,22.77
2022-08-21T18:19:16.008Z,22.60
2022-08-21T18:24:18.924Z,22.38
2022-08-21T18:29:23.454Z,22.24
2022-08-21T18:34:29.136Z,22.10
2022-08-21T18:39:37.271Z,21.82
2022-08-21T18:44:47.252Z,21.64
2022-08-21T18:49:51.830Z,21.65
2022-08-21T18:54:54.714Z,21.34
2022-08-21T18:59:58.952Z,21.05
2022-08-21T19:05:01.757Z,20.94
2022-08-21T19:10:27.860Z,20.90
2022-08-21T19:15:33.158Z,20.96
2022-08-21T19:20:36.922Z,20.89
2022-08-21T19:25:43.213Z,20.70
2022-08-21T19:30:56.046Z,20.69
2022-08-21T19:36:00.204Z,20.71
2022-08-21T19:41:03.831Z,20.69
2022-08-21T19:46:08.203Z,20.51
2022-08-21T19:51:11.168Z,20.37
2022-08-21T19:56:20.232Z,20.39
2022-08-21T20:01:28.128Z,20.44
2022-08-21T20:06:31.260Z,20.26
2022-08-21T20:11:37.721Z,20.34
2022-08-21T20:16:42.438Z,20.22
2022-08-21T20:21:46.065Z,19.99
2022-08-21T20:26:49.977Z,19.89
2022-08-21T20:31:54.502Z,19.81
2022-08-21T20:36:58.641Z,19.78
2022-08-21T20:42:04.200Z,19.61
2022-08-21T20:47:11.575Z,19.60
2022-08-21T20:52:17.037Z,19.55
2022-08-21T20:57:29.361Z,19.44
2022-08-21T21:02:50.668Z,19.33
2022-08-21T21:08:00.456Z,19.01
2022-08-21T21:13:09.760Z,18.49
2022-08-21T21:18:20.157Z,18.36
2022-08-21T21:23:28.518Z,18.66
2022-08-21T21:28:43.560Z,18.71
2022-08-21T21:33:48.701Z,18.68
2022-08-21T21:38:56.309Z,18.67
2022-08-21T21:44:12.633Z,18.60
2022-08-21T21:49:50.111Z,18.41
2022-08-21T21:55:13.079Z,18.12
2022-08-21T22:00:26.507Z,18.02
2022-08-21T22:05:56.239Z,18.02
2022-08-21T22:11:08.777Z,18.10
2022-08-21T22:16:12.572Z,18.10
2022-08-21T22:21:23.971Z,18.00
2022-08-21T22:26:34.357Z,17.97
2022-08-21T22:31:38.439Z,17.94
2022-08-21T22:36:45.502Z,17.97
2022-08-21T22:41:54.801Z,17.83
2022-08-21T22:47:00.837Z,17.72
2022-08-21T22:52:11.865Z,17.60
2022-08-21T22:57:24.218Z,16.32
2022-08-21T23:02:36.025Z,16.47
2022-08-21T23:07:44.479Z,15.93
2022-08-21T23:12:55.652Z,16.56
2022-08-21T23:18:04.564Z,16.50
2022-08-21T23:23:17.769Z,16.46
2022-08-21T23:28:34.732Z,16.64
2022-08-21T23:34:00.941Z,16.72
2022-08-21T23:39:25.770Z,16.65
2022-08-21T23:44:46.238Z,16.61
2022-08-21T23:49:53.800Z,16.32
2022-08-21T23:55:18.987Z,16.17
